createdAt,value
2023-05-17T00:00:39.262Z,1.10
2023-05-17T00:03:07.434Z,0.90
2023-05-17T00:05:35.553Z,0.90
2023-05-17T00:08:05.588Z,1.17
2023-05-17T00:10:33.709Z,0.70
2023-05-17T00:13:01.774Z,1.10
2023-05-17T00:15:29.927Z,0.73
2023-05-17T00:17:58.414Z,0.70
2023-05-17T00:20:26.555Z,1.07
2023-05-17T00:22:54.655Z,0.67
2023-05-17T00:25:24.326Z,1.70
2023-05-17T00:27:52.466Z,0.80
2023-05-17T00:30:20.625Z,1.40
2023-05-17T00:32:48.770Z,0.80
2023-05-17T00:35:17.338Z,1.10
2023-05-17T00:37:47.939Z,1.00
2023-05-17T00:40:16.862Z,0.90
2023-05-17T00:42:46.879Z,0.80
2023-05-17T00:45:14.955Z,1.37
2023-05-17T00:47:43.671Z,1.00
2023-05-17T00:50:12.929Z,0.93
2023-05-17T00:52:41.282Z,0.80
2023-05-17T00:55:10.180Z,1.00
2023-05-17T00:57:39.263Z,0.90
2023-05-17T01:00:10.592Z,0.70
2023-05-17T01:02:39.880Z,1.00
2023-05-17T01:05:10.134Z,1.00
2023-05-17T01:07:38.226Z,1.17
2023-05-17T01:10:08.668Z,1.10
2023-05-17T01:12:51.464Z,0.93
2023-05-17T01:15:27.019Z,0.80
2023-05-17T01:18:06.842Z,0.73
2023-05-17T01:20:39.136Z,1.00
2023-05-17T01:23:32.455Z,0.70
2023-05-17T01:26:09.607Z,0.90
2023-05-17T01:28:41.516Z,0.87
2023-05-17T01:31:11.933Z,1.30
2023-05-17T01:33:40.737Z,1.10
2023-05-17T01:36:10.181Z,0.87
2023-05-17T01:38:38.329Z,1.20
2023-05-17T01:41:17.131Z,1.47
2023-05-17T01:43:52.508Z,0.83
2023-05-17T01:46:29.229Z,0.90
2023-05-17T01:49:07.404Z,1.10
2023-05-17T01:51:45.713Z,0.80
2023-05-17T01:54:16.218Z,0.90
2023-05-17T01:56:49.740Z,0.90
2023-05-17T01:59:25.213Z,1.57
2023-05-17T02:01:58.268Z,0.87
2023-05-17T02:04:26.449Z,0.80
2023-05-17T02:06:54.520Z,1.10
2023-05-17T02:09:22.616Z,1.10
2023-05-17T02:11:50.727Z,1.33
2023-05-17T02:14:20.185Z,1.30
2023-05-17T02:16:48.877Z,1.07
2023-05-17T02:19:17.252Z,0.97
2023-05-17T02:21:45.448Z,0.97
2023-05-17T02:24:13.582Z,0.73
2023-05-17T02:26:43.228Z,1.10
2023-05-17T02:29:13.342Z,1.03
2023-05-17T02:31:42.816Z,1.30
2023-05-17T02:34:11.822Z,0.90
2023-05-17T02:36:41.005Z,0.90
2023-05-17T02:39:09.168Z,0.80
2023-05-17T02:41:37.354Z,0.97
2023-05-17T02:44:05.524Z,0.97
2023-05-17T02:46:34.059Z,1.13
2023-05-17T02:49:04.494Z,0.80
2023-05-17T02:51:32.624Z,0.87
2023-05-17T02:54:01.506Z,0.90
2023-05-17T02:56:29.634Z,0.90
2023-05-17T02:58:58.007Z,0.77
2023-05-17T03:01:26.279Z,1.40
2023-05-17T03:03:55.271Z,1.33
2023-05-17T03:06:24.913Z,0.77
2023-05-17T03:08:53.928Z,0.70
2023-05-17T03:11:22.030Z,0.93
2023-05-17T03:13:51.642Z,0.97
2023-05-17T03:16:23.946Z,1.07
2023-05-17T03:18:53.423Z,0.50
2023-05-17T03:21:21.743Z,0.97
2023-05-17T03:23:52.717Z,0.70
2023-05-17T03:26:20.834Z,0.97
2023-05-17T03:31:52.180Z,0.70
2023-05-17T03:34:20.612Z,1.50
2023-05-17T03:36:49.216Z,1.07
2023-05-17T03:39:20.777Z,1.00
2023-05-17T03:41:48.905Z,1.07
2023-05-17T03:44:17.645Z,1.10
2023-05-17T03:46:46.188Z,0.93
2023-05-17T03:49:15.132Z,0.80
2023-05-17T03:51:43.440Z,1.03
2023-05-17T03:54:11.556Z,1.30
2023-05-17T03:56:43.572Z,0.90
2023-05-17T03:59:11.651Z,1.03
2023-05-17T04:01:39.734Z,1.20
2023-05-17T04:04:07.894Z,0.93
2023-05-17T04:06:36.214Z,1.10
2023-05-17T04:09:05.176Z,1.47
2023-05-17T04:11:33.290Z,0.97
2023-05-17T04:14:02.724Z,0.97
2023-05-17T04:16:32.178Z,0.87
2023-05-17T04:19:01.804Z,1.00
2023-05-17T04:21:31.272Z,1.10
2023-05-17T04:23:59.481Z,0.90
2023-05-17T04:26:28.344Z,1.47
2023-05-17T04:28:56.549Z,1.13
2023-05-17T04:31:26.057Z,0.80
2023-05-17T04:33:54.263Z,0.90
2023-05-17T04:36:22.774Z,0.70
2023-05-17T04:38:51.961Z,0.80
2023-05-17T04:41:25.844Z,1.03
2023-05-17T04:43:54.076Z,0.97
2023-05-17T04:46:30.694Z,0.80
2023-05-17T04:48:58.969Z,0.90
2023-05-17T04:51:27.968Z,1.10
2023-05-17T04:53:56.321Z,1.40
2023-05-17T04:56:24.446Z,2.10
2023-05-17T04:58:53.381Z,1.30
2023-05-17T05:01:22.172Z,1.13
2023-05-17T05:03:52.755Z,1.00
2023-05-17T05:06:22.339Z,1.10
2023-05-17T05:08:51.078Z,1.40
2023-05-17T05:11:19.266Z,1.53
2023-05-17T05:13:47.789Z,1.50
2023-05-17T05:16:15.890Z,1.20
2023-05-17T05:18:45.163Z,1.20
2023-05-17T05:21:15.743Z,1.67
2023-05-17T05:23:44.110Z,1.87
2023-05-17T05:26:13.431Z,3.20
2023-05-17T05:28:41.585Z,2.60
2023-05-17T05:31:10.358Z,1.93
2023-05-17T05:33:44.709Z,1.80
2023-05-17T05:36:13.237Z,1.47
2023-05-17T05:38:43.491Z,1.27
2023-05-17T05:41:11.661Z,1.40
2023-05-17T05:43:39.792Z,1.30
2023-05-17T05:46:08.877Z,1.40
2023-05-17T05:48:39.573Z,1.53
2023-05-17T05:51:08.836Z,2.03
2023-05-17T05:53:39.735Z,1.40
2023-05-17T05:56:09.962Z,1.90
2023-05-17T05:58:38.350Z,1.33
2023-05-17T06:01:07.413Z,1.20
2023-05-17T06:03:35.505Z,2.00
2023-05-17T06:06:03.643Z,1.97
2023-05-17T06:08:31.922Z,1.63
2023-05-17T06:11:00.038Z,1.87
2023-05-17T06:13:29.736Z,1.60
2023-05-17T06:15:59.696Z,1.60
2023-05-17T06:18:27.869Z,1.50
2023-05-17T06:20:56.221Z,1.47
2023-05-17T06:23:24.597Z,1.53
2023-05-17T06:25:53.351Z,2.03
2023-05-17T06:28:21.498Z,1.73
2023-05-17T06:30:50.924Z,1.50
2023-05-17T06:33:19.167Z,1.63
2023-05-17T06:35:55.507Z,1.87
2023-05-17T06:38:24.681Z,1.80
2023-05-17T06:40:54.259Z,1.77
2023-05-17T06:43:22.804Z,1.40
2023-05-17T06:45:52.277Z,2.10
2023-05-17T06:48:20.464Z,2.00
2023-05-17T06:50:48.695Z,2.57
2023-05-17T06:53:16.848Z,1.90
2023-05-17T06:55:45.233Z,2.20
2023-05-17T06:58:13.492Z,2.33
2023-05-17T07:00:41.626Z,1.83
2023-05-17T07:03:11.172Z,2.00
2023-05-17T07:05:39.411Z,2.37
2023-05-17T07:08:33.267Z,2.20
2023-05-17T07:11:02.950Z,2.30
2023-05-17T07:13:32.791Z,2.17
2023-05-17T07:16:01.386Z,2.27
2023-05-17T07:18:31.104Z,2.13
2023-05-17T07:20:59.265Z,2.40
2023-05-17T07:23:27.382Z,2.37
2023-05-17T07:25:55.478Z,2.43
2023-05-17T07:28:23.564Z,2.20
2023-05-17T07:30:52.144Z,2.20
2023-05-17T07:33:20.229Z,2.37
2023-05-17T07:35:49.669Z,2.67
2023-05-17T07:38:17.821Z,1.90
2023-05-17T07:40:48.904Z,2.10
2023-05-17T07:43:16.997Z,2.50
2023-05-17T07:45:45.221Z,2.47
2023-05-17T07:48:13.376Z,2.93
2023-05-17T07:50:44.165Z,3.00
2023-05-17T07:53:13.727Z,2.80
2023-05-17T07:55:51.591Z,2.33
2023-05-17T07:58:20.365Z,2.37
2023-05-17T08:00:49.364Z,2.50
2023-05-17T08:03:17.762Z,2.13
2023-05-17T08:05:46.016Z,2.60
2023-05-17T08:08:15.726Z,2.57
2023-05-17T08:10:43.855Z,2.40
2023-05-17T08:13:14.896Z,2.57
2023-05-17T08:15:43.132Z,2.20
2023-05-17T08:18:11.634Z,2.03
2023-05-17T08:20:39.793Z,2.67
2023-05-17T08:23:08.366Z,2.47
2023-05-17T08:25:37.809Z,2.33
2023-05-17T08:28:06.110Z,2.70
2023-05-17T08:30:34.381Z,2.67
2023-05-17T08:33:03.062Z,2.67
2023-05-17T08:35:31.763Z,2.57
2023-05-17T08:37:59.969Z,2.63
2023-05-17T08:40:29.561Z,2.60
2023-05-17T08:42:59.757Z,2.20
2023-05-17T08:45:29.330Z,2.70
2023-05-17T08:47:58.105Z,2.77
2023-05-17T08:50:30.359Z,2.43
2023-05-17T08:52:59.980Z,2.73
2023-05-17T08:55:30.131Z,2.53
2023-05-17T08:58:00.236Z,2.10
2023-05-17T09:00:28.977Z,2.43
2023-05-17T09:02:57.985Z,2.53
2023-05-17T09:05:26.529Z,2.33
2023-05-17T09:07:55.141Z,2.90
2023-05-17T09:10:23.470Z,2.50
2023-05-17T09:12:52.280Z,2.60
2023-05-17T09:15:26.951Z,2.00
2023-05-17T09:17:55.714Z,2.67
2023-05-17T09:20:25.647Z,2.33
2023-05-17T09:22:53.820Z,2.37
2023-05-17T09:25:22.509Z,2.30
2023-05-17T09:27:53.855Z,1.87
2023-05-17T09:30:29.347Z,2.33
2023-05-17T09:32:58.611Z,1.83
2023-05-17T09:35:30.156Z,2.43
2023-05-17T09:38:08.619Z,1.97
2023-05-17T09:40:41.969Z,2.00
2023-05-17T09:43:11.080Z,2.50
2023-05-17T09:45:41.207Z,2.13
2023-05-17T09:48:22.310Z,2.90
2023-05-17T09:50:53.323Z,2.10
2023-05-17T09:53:28.089Z,2.50
2023-05-17T09:55:58.507Z,2.03
2023-05-17T09:58:28.844Z,2.60
2023-05-17T10:01:02.200Z,2.20
2023-05-17T10:03:34.375Z,2.37
2023-05-17T10:06:05.281Z,2.50
2023-05-17T10:08:34.856Z,2.73
2023-05-17T10:11:09.020Z,2.33
2023-05-17T10:13:44.763Z,2.03
2023-05-17T10:16:14.882Z,2.50
2023-05-17T10:18:43.939Z,2.23
2023-05-17T10:21:12.757Z,2.53
2023-05-17T10:23:44.381Z,2.37
2023-05-17T10:26:15.923Z,3.10
2023-05-17T10:28:46.198Z,2.77
2023-05-17T10:31:16.895Z,2.93
2023-05-17T10:33:48.646Z,2.33
2023-05-17T10:36:19.894Z,2.77
2023-05-17T10:38:48.547Z,3.00
2023-05-17T10:41:19.330Z,2.33
2023-05-17T10:43:48.476Z,2.87
2023-05-17T10:46:21.375Z,2.73
2023-05-17T10:48:51.390Z,2.43
2023-05-17T10:51:25.076Z,2.30
2023-05-17T10:54:09.407Z,2.40
2023-05-17T10:56:42.594Z,2.73
2023-05-17T10:59:21.886Z,2.70
2023-05-17T11:01:59.767Z,2.80
2023-05-17T11:04:35.051Z,2.70
2023-05-17T11:07:27.303Z,2.63
2023-05-17T11:10:05.861Z,2.27
2023-05-17T11:12:39.251Z,2.20
2023-05-17T11:15:10.872Z,2.20
2023-05-17T11:17:53.891Z,2.13
2023-05-17T11:20:38.774Z,2.50
2023-05-17T11:23:17.069Z,2.07
2023-05-17T11:25:46.735Z,2.60
2023-05-17T11:28:22.112Z,2.00
2023-05-17T11:31:05.953Z,2.17
2023-05-17T11:33:44.457Z,2.43
2023-05-17T11:36:20.507Z,2.40
2023-05-17T11:39:09.944Z,2.43
2023-05-17T11:41:41.381Z,2.33
2023-05-17T11:44:10.077Z,2.50
2023-05-17T11:46:39.448Z,2.10
2023-05-17T11:49:10.206Z,2.20
2023-05-17T11:51:39.738Z,2.57
2023-05-17T11:54:08.390Z,2.00
2023-05-17T11:56:43.689Z,2.07
2023-05-17T11:59:12.671Z,2.10
2023-05-17T12:01:45.922Z,2.37
2023-05-17T12:04:16.155Z,1.90
2023-05-17T12:06:45.886Z,2.00
2023-05-17T12:09:17.807Z,1.90
2023-05-17T12:11:46.295Z,2.07
2023-05-17T12:14:18.242Z,1.80
2023-05-17T12:16:50.634Z,2.30
2023-05-17T12:19:22.519Z,2.17
2023-05-17T12:21:51.464Z,1.90
2023-05-17T12:24:19.940Z,2.37
2023-05-17T12:26:49.186Z,2.00
2023-05-17T12:29:22.888Z,1.97
2023-05-17T12:31:53.762Z,1.90
2023-05-17T12:34:23.663Z,1.83
2023-05-17T12:36:53.244Z,2.03
2023-05-17T12:39:23.921Z,2.30
2023-05-17T12:41:53.051Z,2.50
2023-05-17T12:44:21.765Z,2.37
2023-05-17T12:46:53.828Z,2.50
2023-05-17T12:49:23.603Z,2.00
2023-05-17T12:51:51.819Z,2.50
2023-05-17T12:54:30.569Z,2.00
2023-05-17T12:56:58.863Z,1.93
2023-05-17T12:59:29.088Z,2.30
2023-05-17T13:02:00.644Z,2.03
2023-05-17T13:04:36.861Z,2.00
2023-05-17T13:07:06.863Z,2.20
2023-05-17T13:09:36.434Z,2.40
2023-05-17T13:12:08.771Z,2.03
2023-05-17T13:14:40.288Z,2.00
2023-05-17T13:17:12.056Z,2.70
2023-05-17T13:19:42.243Z,2.93
2023-05-17T13:22:11.169Z,2.80
2023-05-17T13:24:40.686Z,2.40
2023-05-17T13:27:09.512Z,2.90
2023-05-17T13:29:41.615Z,2.27
2023-05-17T13:32:13.670Z,2.50
2023-05-17T13:34:43.211Z,2.37
2023-05-17T13:37:12.740Z,2.30
2023-05-17T13:39:41.680Z,1.90
2023-05-17T13:42:10.530Z,2.40
2023-05-17T13:44:39.084Z,2.43
2023-05-17T13:47:07.509Z,2.57
2023-05-17T13:49:36.178Z,2.30
2023-05-17T13:52:08.959Z,2.37
2023-05-17T13:54:37.885Z,2.03
2023-05-17T13:57:07.227Z,2.27
2023-05-17T13:59:35.347Z,2.03
2023-05-17T14:02:04.506Z,2.20
2023-05-17T14:04:33.088Z,2.03
2023-05-17T14:07:01.761Z,2.20
2023-05-17T14:09:33.773Z,2.30
2023-05-17T14:12:02.537Z,2.33
2023-05-17T14:14:31.968Z,2.67
2023-05-17T14:17:01.373Z,2.63
2023-05-17T14:19:29.651Z,2.20
2023-05-17T14:21:57.833Z,2.20
2023-05-17T14:24:25.919Z,2.30
2023-05-17T14:26:55.370Z,2.70
2023-05-17T14:29:23.488Z,2.57
2023-05-17T14:31:51.851Z,2.60
2023-05-17T14:34:20.208Z,3.17
2023-05-17T14:36:48.458Z,2.20
2023-05-17T14:39:17.486Z,2.53
2023-05-17T14:41:45.622Z,2.60
2023-05-17T14:44:15.134Z,2.40
2023-05-17T14:46:43.331Z,2.87
2023-05-17T14:49:11.527Z,2.50
2023-05-17T14:51:39.800Z,2.33
2023-05-17T14:54:07.902Z,2.50
2023-05-17T14:56:36.033Z,2.23
2023-05-17T14:59:04.142Z,2.07
2023-05-17T15:01:33.597Z,2.47
2023-05-17T15:04:01.853Z,1.93
2023-05-17T15:06:30.198Z,2.73
2023-05-17T15:08:58.405Z,2.57
2023-05-17T15:11:26.551Z,3.00
2023-05-17T15:13:54.933Z,2.20
2023-05-17T15:16:23.433Z,2.30
2023-05-17T15:18:54.813Z,2.20
2023-05-17T15:21:24.654Z,2.20
2023-05-17T15:23:52.966Z,2.63
2023-05-17T15:26:25.494Z,2.53
2023-05-17T15:28:53.588Z,2.30
2023-05-17T15:31:23.821Z,2.60
2023-05-17T15:33:53.366Z,2.43
2023-05-17T15:36:21.602Z,2.20
2023-05-17T15:38:49.735Z,2.50
2023-05-17T15:41:22.273Z,2.30
2023-05-17T15:43:50.459Z,3.13
2023-05-17T15:46:19.508Z,3.17
2023-05-17T15:48:47.832Z,3.30
2023-05-17T15:51:17.607Z,2.90
2023-05-17T15:53:45.809Z,2.40
2023-05-17T15:56:15.775Z,2.70
2023-05-17T15:58:45.016Z,2.60
2023-05-17T16:01:13.097Z,2.20
2023-05-17T16:03:41.254Z,2.23
2023-05-17T16:06:09.541Z,2.63
2023-05-17T16:08:39.546Z,2.50
2023-05-17T16:11:08.406Z,2.50
2023-05-17T16:13:36.549Z,2.87
2023-05-17T16:16:04.851Z,2.10
2023-05-17T16:18:33.072Z,1.80
2023-05-17T16:21:04.094Z,2.40
2023-05-17T16:23:32.580Z,2.90
2023-05-17T16:26:02.793Z,2.10
2023-05-17T16:28:32.303Z,2.10
2023-05-17T16:31:00.842Z,2.53
2023-05-17T16:33:29.058Z,2.77
2023-05-17T16:35:58.334Z,2.27
2023-05-17T16:38:26.520Z,2.10
2023-05-17T16:41:22.937Z,2.53
2023-05-17T16:43:51.655Z,2.27
2023-05-17T16:46:24.474Z,2.53
2023-05-17T16:48:56.622Z,2.47
2023-05-17T16:51:25.050Z,2.10
2023-05-17T16:53:53.234Z,2.40
2023-05-17T16:56:23.046Z,2.23
2023-05-17T16:58:52.254Z,3.10
2023-05-17T17:01:20.440Z,2.30
2023-05-17T17:03:48.850Z,2.30
2023-05-17T17:06:17.071Z,2.30
2023-05-17T17:08:46.487Z,2.60
2023-05-17T17:11:14.638Z,2.60
2023-05-17T17:13:44.161Z,3.00
2023-05-17T17:16:12.304Z,2.23
2023-05-17T17:18:40.511Z,2.43
2023-05-17T17:21:08.585Z,2.30
2023-05-17T17:23:36.689Z,2.27
2023-05-17T17:26:30.652Z,2.70
2023-05-17T17:29:00.127Z,2.00
2023-05-17T17:31:28.373Z,2.17
2023-05-17T17:33:56.593Z,2.40
2023-05-17T17:36:25.989Z,2.50
2023-05-17T17:38:54.888Z,2.40
2023-05-17T17:41:23.136Z,2.20
2023-05-17T17:43:51.255Z,2.60
2023-05-17T17:46:20.927Z,2.20
2023-05-17T17:48:49.107Z,2.40
2023-05-17T17:51:17.244Z,2.50
2023-05-17T17:53:45.332Z,3.97
2023-05-17T17:56:13.400Z,2.73
2023-05-17T17:58:41.552Z,2.70
2023-05-17T18:01:09.766Z,2.60
2023-05-17T18:03:39.235Z,2.63
2023-05-17T18:06:07.693Z,2.27
2023-05-17T18:08:35.818Z,2.67
2023-05-17T18:11:03.921Z,3.03
2023-05-17T18:13:32.060Z,2.87
2023-05-17T18:16:00.258Z,2.77
2023-05-17T18:18:28.359Z,2.37
2023-05-17T18:20:57.998Z,2.40
2023-05-17T18:23:26.405Z,2.70
2023-05-17T18:25:54.499Z,2.33
2023-05-17T18:28:33.847Z,2.00
2023-05-17T18:31:09.940Z,2.00
2023-05-17T18:33:38.016Z,2.40
2023-05-17T18:36:08.212Z,2.50
2023-05-17T18:38:36.358Z,2.50
2023-05-17T18:41:06.257Z,2.43
2023-05-17T18:43:38.371Z,2.50
2023-05-17T18:46:06.479Z,3.07
2023-05-17T18:48:36.487Z,2.13
2023-05-17T18:51:06.835Z,3.20
2023-05-17T18:53:36.757Z,3.30
2023-05-17T18:56:05.323Z,3.13
2023-05-17T18:58:33.449Z,3.93
2023-05-17T19:01:02.597Z,3.50
2023-05-17T19:03:30.911Z,3.47
2023-05-17T19:05:59.167Z,3.13
2023-05-17T19:08:27.298Z,4.60
2023-05-17T19:10:56.751Z,3.60
2023-05-17T19:13:27.112Z,3.30
2023-05-17T19:15:55.245Z,3.27
2023-05-17T19:18:23.419Z,7.70
2023-05-17T19:20:51.562Z,12.77
2023-05-17T19:23:21.302Z,11.13
2023-05-17T19:25:49.954Z,12.03
2023-05-17T19:28:19.389Z,11.13
2023-05-17T19:30:47.527Z,8.63
2023-05-17T19:33:16.426Z,7.07
2023-05-17T19:35:44.572Z,8.47
2023-05-17T19:38:12.698Z,7.30
2023-05-17T19:40:41.281Z,5.83
2023-05-17T19:43:09.357Z,4.20
2023-05-17T19:45:39.582Z,3.90
2023-05-17T19:48:09.923Z,4.17
2023-05-17T19:50:38.975Z,4.03
2023-05-17T19:53:07.123Z,4.47
2023-05-17T19:55:36.436Z,6.43
2023-05-17T19:58:04.761Z,10.83
2023-05-17T20:00:33.096Z,7.63
2023-05-17T20:03:02.676Z,6.37
2023-05-17T20:05:31.257Z,7.13
2023-05-17T20:08:03.005Z,8.00
2023-05-17T20:10:32.175Z,6.37
2023-05-17T20:13:00.566Z,13.03
2023-05-17T20:15:28.982Z,10.80
2023-05-17T20:17:59.023Z,7.03
2023-05-17T20:20:28.654Z,5.40
2023-05-17T20:22:57.035Z,5.73
2023-05-17T20:25:25.534Z,5.23
2023-05-17T20:28:17.717Z,5.07
2023-05-17T20:30:51.812Z,3.83
2023-05-17T20:33:26.197Z,3.97
2023-05-17T20:35:56.078Z,3.47
2023-05-17T20:38:24.172Z,3.00
2023-05-17T20:40:53.000Z,2.70
2023-05-17T20:43:21.140Z,2.57
2023-05-17T20:45:49.920Z,2.40
2023-05-17T20:48:18.432Z,2.57
2023-05-17T20:50:47.275Z,3.63
2023-05-17T20:53:16.684Z,2.90
2023-05-17T20:55:45.230Z,3.67
2023-05-17T20:58:13.269Z,6.37
2023-05-17T21:00:41.411Z,4.23
2023-05-17T21:03:10.997Z,4.13
2023-05-17T21:05:39.292Z,3.90
2023-05-17T21:08:08.204Z,3.60
2023-05-17T21:10:40.542Z,5.33
2023-05-17T21:13:11.905Z,7.63
2023-05-17T21:15:40.039Z,9.17
2023-05-17T21:18:10.717Z,7.90
2023-05-17T21:20:39.762Z,4.63
2023-05-17T21:23:07.869Z,3.20
2023-05-17T21:25:38.453Z,3.47
2023-05-17T21:28:06.850Z,3.13
2023-05-17T21:30:37.045Z,3.57
2023-05-17T21:33:05.716Z,3.80
2023-05-17T21:35:33.988Z,4.30
2023-05-17T21:38:02.073Z,3.70
2023-05-17T21:40:32.654Z,3.10
2023-05-17T21:43:06.153Z,2.80
2023-05-17T21:45:39.813Z,2.60
2023-05-17T21:48:11.619Z,2.70
2023-05-17T21:50:39.785Z,3.13
2023-05-17T21:53:12.405Z,2.70
2023-05-17T21:55:56.305Z,2.20
2023-05-17T21:58:31.128Z,2.53
2023-05-17T22:00:59.332Z,1.87
2023-05-17T22:03:27.557Z,2.63
2023-05-17T22:05:55.691Z,2.50
2023-05-17T22:08:23.837Z,2.70
2023-05-17T22:10:54.297Z,2.50
2023-05-17T22:13:26.240Z,2.63
2023-05-17T22:15:57.088Z,2.57
2023-05-17T22:18:52.393Z,2.17
2023-05-17T22:21:21.345Z,2.53
2023-05-17T22:23:49.372Z,2.40
2023-05-17T22:26:19.758Z,2.70
2023-05-17T22:28:47.931Z,2.67
2023-05-17T22:31:18.431Z,2.50
2023-05-17T22:33:46.957Z,2.70
2023-05-17T22:36:17.133Z,2.70
2023-05-17T22:38:45.317Z,2.97
2023-05-17T22:41:14.425Z,2.90
2023-05-17T22:43:42.556Z,2.80
2023-05-17T22:46:17.072Z,2.87
2023-05-17T22:48:46.519Z,2.20
2023-05-17T22:51:14.620Z,3.03
2023-05-17T22:53:42.669Z,2.97
2023-05-17T22:56:11.080Z,2.77
2023-05-17T22:58:39.206Z,3.00
2023-05-17T23:01:07.409Z,2.90
2023-05-17T23:03:35.554Z,2.87
2023-05-17T23:06:05.437Z,3.00
2023-05-17T23:08:33.716Z,3.07
2023-05-17T23:11:01.867Z,2.73
2023-05-17T23:13:29.991Z,3.13
2023-05-17T23:15:58.075Z,2.93
2023-05-17T23:18:27.476Z,2.90
2023-05-17T23:20:55.700Z,2.30
2023-05-17T23:23:25.185Z,2.27
2023-05-17T23:25:56.304Z,2.20
2023-05-17T23:28:25.091Z,2.10
2023-05-17T23:30:54.479Z,2.43
2023-05-17T23:33:22.588Z,2.40
2023-05-17T23:35:51.115Z,2.27
2023-05-17T23:38:19.236Z,2.30
2023-05-17T23:40:48.612Z,2.00
2023-05-17T23:43:16.631Z,2.10
2023-05-17T23:45:44.777Z,2.30
2023-05-17T23:48:16.040Z,2.40
2023-05-17T23:50:44.221Z,2.43
2023-05-17T23:53:12.312Z,2.53
2023-05-17T23:55:40.393Z,2.50
2023-05-17T23:58:09.823Z,2.90
